createdAt,value
2023-04-17T00:00:27.188Z,0.00
2023-04-17T00:01:27.234Z,0.00
2023-04-17T00:02:27.309Z,0.00
2023-04-17T00:03:27.436Z,0.00
2023-04-17T00:04:27.371Z,0.00
2023-04-17T00:05:27.311Z,0.00
2023-04-17T00:06:27.404Z,0.00
2023-04-17T00:07:27.359Z,0.00
2023-04-17T00:08:27.359Z,0.00
2023-04-17T00:09:27.380Z,0.00
2023-04-17T00:10:27.402Z,0.00
2023-04-17T00:11:27.426Z,0.00
2023-04-17T00:12:27.447Z,0.00
2023-04-17T00:13:27.469Z,0.00
2023-04-17T00:14:27.491Z,0.00
2023-04-17T00:15:27.510Z,0.00
2023-04-17T00:16:27.608Z,0.00
2023-04-17T00:17:27.599Z,0.00
2023-04-17T00:18:27.583Z,0.00
2023-04-17T00:19:27.603Z,0.00
2023-04-17T00:20:27.635Z,0.00
2023-04-17T00:21:27.647Z,0.00
2023-04-17T00:22:27.668Z,0.00
2023-04-17T00:23:27.701Z,0.00
2023-04-17T00:24:27.710Z,0.00
2023-04-17T00:25:27.766Z,0.00
2023-04-17T00:26:27.760Z,0.00
2023-04-17T00:27:27.780Z,0.00
2023-04-17T00:28:27.795Z,0.00
2023-04-17T00:29:27.824Z,0.00
2023-04-17T00:30:27.854Z,0.00
2023-04-17T00:31:27.953Z,0.00
2023-04-17T00:32:27.910Z,0.00
2023-04-17T00:33:27.919Z,0.00
2023-04-17T00:34:27.936Z,0.00
2023-04-17T00:35:27.962Z,0.00
2023-04-17T00:36:27.975Z,0.00
2023-04-17T00:37:28.002Z,0.00
2023-04-17T00:38:28.026Z,0.00
2023-04-17T00:39:28.048Z,0.00
2023-04-17T00:40:28.066Z,0.00
2023-04-17T00:41:28.095Z,0.00
2023-04-17T00:42:28.115Z,0.00
2023-04-17T00:43:28.135Z,0.00
2023-04-17T00:44:28.154Z,0.00
2023-04-17T00:45:28.213Z,0.00
2023-04-17T00:46:28.198Z,0.00
2023-04-17T00:47:28.237Z,0.00
2023-04-17T00:48:28.261Z,0.00
2023-04-17T00:49:28.265Z,0.00
2023-04-17T00:50:28.294Z,0.00
2023-04-17T00:51:28.315Z,0.00
2023-04-17T00:52:28.346Z,0.00
2023-04-17T00:53:28.352Z,0.00
2023-04-17T00:54:28.376Z,0.00
2023-04-17T00:55:28.413Z,0.00
2023-04-17T00:56:28.420Z,0.00
2023-04-17T00:57:28.443Z,0.00
2023-04-17T00:58:28.454Z,0.00
2023-04-17T00:59:28.486Z,0.00
2023-04-17T01:00:28.519Z,0.00
2023-04-17T01:01:28.580Z,0.00
2023-04-17T01:02:28.683Z,0.00
2023-04-17T01:03:28.706Z,0.00
2023-04-17T01:04:28.644Z,0.00
2023-04-17T01:05:28.615Z,0.00
2023-04-17T01:06:28.660Z,0.00
2023-04-17T01:07:28.664Z,0.00
2023-04-17T01:08:28.684Z,0.00
2023-04-17T01:09:28.704Z,0.00
2023-04-17T01:10:28.730Z,0.00
2023-04-17T01:11:28.746Z,0.00
2023-04-17T01:12:28.773Z,0.00
2023-04-17T01:13:28.789Z,0.00
2023-04-17T01:14:28.810Z,0.00
2023-04-17T01:15:28.867Z,0.00
2023-04-17T01:16:28.873Z,0.00
2023-04-17T01:17:28.888Z,0.00
2023-04-17T01:18:28.898Z,0.00
2023-04-17T01:19:28.920Z,0.00
2023-04-17T01:20:28.945Z,0.00
2023-04-17T01:21:28.964Z,0.00
2023-04-17T01:22:28.986Z,0.00
2023-04-17T01:23:29.010Z,0.00
2023-04-17T01:24:29.031Z,0.00
2023-04-17T01:25:29.048Z,0.00
2023-04-17T01:26:29.073Z,0.00
2023-04-17T01:27:29.096Z,0.00
2023-04-17T01:28:29.120Z,0.00
2023-04-17T01:29:29.137Z,0.00
2023-04-17T01:30:29.162Z,0.00
2023-04-17T01:31:29.229Z,0.00
2023-04-17T01:32:29.229Z,0.00
2023-04-17T01:33:29.227Z,0.00
2023-04-17T01:34:29.248Z,0.00
2023-04-17T01:35:29.264Z,0.00
2023-04-17T01:36:29.295Z,0.00
2023-04-17T01:37:29.317Z,0.00
2023-04-17T01:38:29.336Z,0.00
2023-04-17T01:39:29.366Z,0.00
2023-04-17T01:40:29.389Z,0.00
2023-04-17T01:41:29.407Z,0.00
2023-04-17T01:42:29.443Z,0.00
2023-04-17T01:43:29.447Z,0.00
2023-04-17T01:44:29.470Z,0.00
2023-04-17T01:45:29.496Z,0.00
2023-04-17T01:46:29.573Z,0.00
2023-04-17T01:47:29.566Z,0.00
2023-04-17T01:48:29.557Z,0.00
2023-04-17T01:49:29.581Z,0.00
2023-04-17T01:50:29.604Z,0.00
2023-04-17T01:51:29.622Z,0.00
2023-04-17T01:52:29.644Z,0.00
2023-04-17T01:53:29.666Z,0.00
2023-04-17T01:54:29.695Z,0.00
2023-04-17T01:55:29.711Z,0.00
2023-04-17T01:56:29.738Z,0.00
2023-04-17T01:57:29.754Z,0.00
2023-04-17T01:58:29.781Z,0.00
2023-04-17T01:59:29.797Z,0.00
2023-04-17T02:00:29.820Z,0.00
2023-04-17T02:01:29.872Z,0.00
2023-04-17T02:02:29.969Z,0.00
2023-04-17T02:03:29.993Z,0.00
2023-04-17T02:04:30.012Z,0.00
2023-04-17T02:05:29.929Z,0.00
2023-04-17T02:06:29.953Z,0.00
2023-04-17T02:07:29.974Z,0.00
2023-04-17T02:08:30.038Z,0.00
2023-04-17T02:09:30.054Z,0.00
2023-04-17T02:10:30.055Z,0.00
2023-04-17T02:11:30.066Z,0.00
2023-04-17T02:12:30.089Z,0.00
2023-04-17T02:13:30.106Z,0.00
2023-04-17T02:14:30.125Z,0.00
2023-04-17T02:15:30.151Z,0.00
2023-04-17T02:16:30.208Z,0.00
2023-04-17T02:17:30.212Z,0.00
2023-04-17T02:18:30.211Z,0.00
2023-04-17T02:19:30.235Z,0.00
2023-04-17T02:20:30.264Z,0.00
2023-04-17T02:21:30.290Z,0.00
2023-04-17T02:22:30.299Z,0.00
2023-04-17T02:23:30.325Z,0.00
2023-04-17T02:24:30.342Z,0.00
2023-04-17T02:25:30.366Z,0.00
2023-04-17T02:26:30.393Z,0.00
2023-04-17T02:27:30.412Z,0.00
2023-04-17T02:28:30.433Z,0.00
2023-04-17T02:29:30.452Z,0.00
2023-04-17T02:30:30.478Z,0.00
2023-04-17T02:31:30.536Z,0.00
2023-04-17T02:32:30.560Z,0.00
2023-04-17T02:33:30.539Z,0.00
2023-04-17T02:34:30.557Z,0.00
2023-04-17T02:35:30.584Z,0.00
2023-04-17T02:36:30.611Z,0.00
2023-04-17T02:37:30.625Z,0.00
2023-04-17T02:38:30.674Z,0.00
2023-04-17T02:39:30.670Z,0.00
2023-04-17T02:40:30.692Z,0.00
2023-04-17T02:41:30.717Z,0.00
2023-04-17T02:42:30.732Z,0.00
2023-04-17T02:43:30.757Z,0.00
2023-04-17T02:44:30.785Z,0.00
2023-04-17T02:45:30.799Z,0.00
2023-04-17T02:46:30.848Z,0.00
2023-04-17T02:47:30.868Z,0.00
2023-04-17T02:48:30.870Z,0.00
2023-04-17T02:49:30.891Z,0.00
2023-04-17T02:50:30.910Z,0.00
2023-04-17T02:51:30.942Z,0.00
2023-04-17T02:52:30.950Z,0.00
2023-04-17T02:53:30.973Z,0.00
2023-04-17T02:54:30.993Z,0.00
2023-04-17T02:55:31.025Z,0.00
2023-04-17T02:56:31.043Z,0.00
2023-04-17T02:57:31.063Z,0.00
2023-04-17T02:58:31.098Z,0.00
2023-04-17T02:59:31.105Z,0.00
2023-04-17T03:00:31.128Z,0.00
2023-04-17T03:01:31.196Z,0.00
2023-04-17T03:02:31.267Z,0.00
2023-04-17T03:03:31.421Z,0.00
2023-04-17T03:04:31.212Z,0.00
2023-04-17T03:05:31.234Z,0.00
2023-04-17T03:06:31.260Z,0.00
2023-04-17T03:07:31.278Z,0.00
2023-04-17T03:08:33.101Z,0.00
2023-04-17T03:09:31.330Z,0.00
2023-04-17T03:10:31.345Z,0.00
2023-04-17T03:11:31.369Z,0.00
2023-04-17T03:12:31.387Z,0.00
2023-04-17T03:13:31.478Z,0.00
2023-04-17T03:14:31.443Z,0.00
2023-04-17T03:15:31.459Z,0.00
2023-04-17T03:16:31.487Z,0.00
2023-04-17T03:17:31.526Z,0.00
2023-04-17T03:18:31.529Z,0.00
2023-04-17T03:19:31.538Z,0.00
2023-04-17T03:20:31.575Z,0.00
2023-04-17T03:21:31.581Z,0.00
2023-04-17T03:22:31.605Z,0.00
2023-04-17T03:23:31.624Z,0.00
2023-04-17T03:24:31.744Z,0.00
2023-04-17T03:25:31.665Z,0.00
2023-04-17T03:26:31.690Z,0.00
2023-04-17T03:27:31.721Z,0.00
2023-04-17T03:28:31.732Z,0.00
2023-04-17T03:29:31.761Z,0.00
2023-04-17T03:30:31.779Z,0.00
2023-04-17T03:31:31.806Z,0.00
2023-04-17T03:32:31.835Z,0.00
2023-04-17T03:33:31.842Z,0.00
2023-04-17T03:34:31.859Z,0.00
2023-04-17T03:35:31.887Z,0.00
2023-04-17T03:36:31.913Z,0.00
2023-04-17T03:37:31.940Z,0.00
2023-04-17T03:38:31.946Z,0.00
2023-04-17T03:39:31.970Z,0.00
2023-04-17T03:40:33.626Z,0.00
2023-04-17T03:41:32.015Z,0.00
2023-04-17T03:42:32.039Z,0.00
2023-04-17T03:43:32.064Z,0.00
2023-04-17T03:44:32.085Z,0.00
2023-04-17T03:45:32.172Z,0.00
2023-04-17T03:46:32.120Z,0.00
2023-04-17T03:47:32.152Z,0.00
2023-04-17T03:48:32.170Z,0.00
2023-04-17T03:49:32.184Z,0.00
2023-04-17T03:50:32.212Z,0.00
2023-04-17T03:51:32.233Z,0.00
2023-04-17T03:52:32.248Z,0.00
2023-04-17T03:53:32.270Z,0.00
2023-04-17T03:54:32.297Z,0.00
2023-04-17T03:55:32.317Z,0.00
2023-04-17T03:56:32.335Z,0.00
2023-04-17T03:57:32.360Z,0.00
2023-04-17T03:58:32.374Z,0.00
2023-04-17T03:59:32.401Z,0.00
2023-04-17T04:00:32.414Z,0.00
2023-04-17T04:01:32.440Z,0.00
2023-04-17T04:02:32.635Z,0.00
2023-04-17T04:03:32.880Z,0.00
2023-04-17T04:04:32.610Z,0.00
2023-04-17T04:05:32.522Z,0.00
2023-04-17T04:06:32.541Z,0.00
2023-04-17T04:07:32.565Z,0.00
2023-04-17T04:08:32.595Z,0.00
2023-04-17T04:09:32.611Z,0.00
2023-04-17T04:10:32.675Z,0.00
2023-04-17T04:11:32.649Z,0.00
2023-04-17T04:12:32.677Z,0.00
2023-04-17T04:13:32.716Z,0.00
2023-04-17T04:14:32.716Z,0.00
2023-04-17T04:15:32.748Z,0.00
2023-04-17T04:16:32.807Z,0.00
2023-04-17T04:17:32.831Z,0.00
2023-04-17T04:18:32.805Z,0.00
2023-04-17T04:19:32.832Z,0.00
2023-04-17T04:20:32.861Z,0.00
2023-04-17T04:21:32.869Z,0.00
2023-04-17T04:22:32.888Z,0.00
2023-04-17T04:23:32.908Z,0.00
2023-04-17T04:24:32.926Z,0.00
2023-04-17T04:25:32.949Z,0.00
2023-04-17T04:26:32.971Z,0.00
2023-04-17T04:27:33.074Z,0.00
2023-04-17T04:28:33.012Z,0.00
2023-04-17T04:29:33.049Z,0.00
2023-04-17T04:30:33.057Z,0.00
2023-04-17T04:31:33.147Z,0.00
2023-04-17T04:32:33.149Z,5.63
2023-04-17T04:33:33.122Z,5.63
2023-04-17T04:34:33.160Z,5.63
2023-04-17T04:35:33.167Z,5.63
2023-04-17T04:36:33.189Z,5.63
2023-04-17T04:37:33.215Z,5.63
2023-04-17T04:38:33.360Z,5.63
2023-04-17T04:39:33.258Z,5.63
2023-04-17T04:40:33.275Z,5.63
2023-04-17T04:41:33.295Z,11.25
2023-04-17T04:42:33.319Z,11.25
2023-04-17T04:43:33.338Z,11.25
2023-04-17T04:44:33.375Z,11.25
2023-04-17T04:45:33.378Z,11.25
2023-04-17T04:46:33.442Z,11.25
2023-04-17T04:47:33.507Z,11.25
2023-04-17T04:48:33.441Z,11.25
2023-04-17T04:49:33.471Z,11.25
2023-04-17T04:50:33.491Z,11.25
2023-04-17T04:51:33.504Z,11.25
2023-04-17T04:52:33.534Z,16.88
2023-04-17T04:53:33.567Z,16.88
2023-04-17T04:54:33.574Z,16.88
2023-04-17T04:55:33.624Z,16.88
2023-04-17T04:56:33.619Z,22.50
2023-04-17T04:57:33.636Z,22.50
2023-04-17T04:58:33.657Z,28.13
2023-04-17T04:59:33.681Z,28.13
2023-04-17T05:00:33.701Z,28.13
2023-04-17T05:01:33.876Z,33.75
2023-04-17T05:02:34.083Z,33.75
2023-04-17T05:03:34.007Z,39.38
2023-04-17T05:04:33.861Z,39.38
2023-04-17T05:05:33.811Z,45.00
2023-04-17T05:06:33.842Z,45.00
2023-04-17T05:07:33.881Z,45.00
2023-04-17T05:08:33.888Z,45.00
2023-04-17T05:09:33.898Z,50.63
2023-04-17T05:10:33.921Z,50.63
2023-04-17T05:11:33.941Z,50.63
2023-04-17T05:12:33.964Z,50.63
2023-04-17T05:13:33.986Z,56.25
2023-04-17T05:14:34.018Z,56.25
2023-04-17T05:15:34.035Z,56.25
2023-04-17T05:16:34.078Z,56.25
2023-04-17T05:17:34.080Z,61.88
2023-04-17T05:18:34.092Z,61.88
2023-04-17T05:19:34.133Z,61.88
2023-04-17T05:20:34.134Z,61.88
2023-04-17T05:21:34.156Z,61.88
2023-04-17T05:22:34.192Z,61.88
2023-04-17T05:23:34.200Z,67.50
2023-04-17T05:24:34.229Z,67.50
2023-04-17T05:25:34.247Z,67.50
2023-04-17T05:26:34.265Z,67.50
2023-04-17T05:27:34.287Z,67.50
2023-04-17T05:28:34.311Z,67.50
2023-04-17T05:29:34.331Z,67.50
2023-04-17T05:30:34.350Z,61.88
2023-04-17T05:31:34.424Z,61.88
2023-04-17T05:32:34.408Z,61.88
2023-04-17T05:33:34.416Z,61.88
2023-04-17T05:34:34.441Z,61.88
2023-04-17T05:35:34.456Z,61.88
2023-04-17T05:36:34.487Z,67.50
2023-04-17T05:37:34.500Z,67.50
2023-04-17T05:38:34.541Z,73.13
2023-04-17T05:39:34.541Z,73.13
2023-04-17T05:40:34.572Z,67.50
2023-04-17T05:41:34.586Z,67.50
2023-04-17T05:42:34.627Z,67.50
2023-04-17T05:43:34.630Z,73.13
2023-04-17T05:44:34.653Z,73.13
2023-04-17T05:45:34.698Z,67.50
2023-04-17T05:46:34.690Z,67.50
2023-04-17T05:47:34.789Z,67.50
2023-04-17T05:48:34.748Z,73.13
2023-04-17T05:49:34.751Z,73.13
2023-04-17T05:50:34.782Z,78.75
2023-04-17T05:51:34.798Z,73.13
2023-04-17T05:52:35.003Z,73.13
2023-04-17T05:53:34.845Z,78.75
2023-04-17T05:54:34.863Z,78.75
2023-04-17T05:55:34.885Z,84.38
2023-04-17T05:56:34.916Z,84.38
2023-04-17T05:57:34.937Z,84.38
2023-04-17T05:58:34.952Z,84.38
2023-04-17T05:59:34.979Z,90.00
2023-04-17T06:00:35.010Z,90.00
2023-04-17T06:01:35.011Z,90.00
2023-04-17T06:02:35.225Z,90.00
2023-04-17T06:03:35.472Z,90.00
2023-04-17T06:04:35.446Z,95.63
2023-04-17T06:05:35.165Z,95.63
2023-04-17T06:06:35.124Z,101.25
2023-04-17T06:07:35.148Z,112.50
2023-04-17T06:08:35.169Z,106.88
2023-04-17T06:09:35.194Z,112.50
2023-04-17T06:10:35.218Z,123.75
2023-04-17T06:11:35.237Z,135.00
2023-04-17T06:12:35.296Z,140.63
2023-04-17T06:13:35.283Z,157.50
2023-04-17T06:14:35.374Z,174.38
2023-04-17T06:15:35.337Z,185.63
2023-04-17T06:16:35.367Z,191.25
2023-04-17T06:17:35.374Z,202.50
2023-04-17T06:18:35.386Z,208.13
2023-04-17T06:19:35.418Z,213.75
2023-04-17T06:20:35.758Z,219.38
2023-04-17T06:21:35.455Z,219.38
2023-04-17T06:22:35.477Z,225.00
2023-04-17T06:23:35.495Z,230.63
2023-04-17T06:24:35.518Z,236.25
2023-04-17T06:25:35.540Z,241.88
2023-04-17T06:26:35.591Z,247.50
2023-04-17T06:27:36.986Z,247.50
2023-04-17T06:28:35.615Z,247.50
2023-04-17T06:29:35.631Z,247.50
2023-04-17T06:30:35.750Z,241.88
2023-04-17T06:31:35.734Z,241.88
2023-04-17T06:32:35.712Z,241.88
2023-04-17T06:33:35.717Z,241.88
2023-04-17T06:34:38.166Z,247.50
2023-04-17T06:35:35.880Z,247.50
2023-04-17T06:36:35.787Z,253.13
2023-04-17T06:37:35.806Z,253.13
2023-04-17T06:38:35.831Z,258.75
2023-04-17T06:39:35.855Z,258.75
2023-04-17T06:40:35.882Z,264.38
2023-04-17T06:41:35.898Z,264.38
2023-04-17T06:42:35.919Z,270.00
2023-04-17T06:43:35.956Z,270.00
2023-04-17T06:44:35.962Z,275.63
2023-04-17T06:45:35.988Z,275.63
2023-04-17T06:46:36.061Z,275.63
2023-04-17T06:47:36.044Z,275.63
2023-04-17T06:48:36.062Z,270.00
2023-04-17T06:49:36.080Z,270.00
2023-04-17T06:50:36.096Z,275.63
2023-04-17T06:51:36.134Z,281.25
2023-04-17T06:52:36.155Z,286.88
2023-04-17T06:53:36.191Z,292.50
2023-04-17T06:54:36.206Z,303.75
2023-04-17T06:55:36.214Z,315.00
2023-04-17T06:56:36.231Z,331.88
2023-04-17T06:57:36.252Z,348.75
2023-04-17T06:58:36.276Z,365.63
2023-04-17T06:59:36.296Z,388.13
2023-04-17T07:00:36.351Z,410.63
2023-04-17T07:01:36.437Z,421.88
2023-04-17T07:02:36.462Z,427.50
2023-04-17T07:03:36.516Z,433.13
2023-04-17T07:04:36.500Z,427.50
2023-04-17T07:05:36.430Z,416.25
2023-04-17T07:06:36.479Z,410.63
2023-04-17T07:07:36.487Z,405.00
2023-04-17T07:08:36.499Z,399.38
2023-04-17T07:09:36.524Z,399.38
2023-04-17T07:10:36.563Z,399.38
2023-04-17T07:11:36.571Z,405.00
2023-04-17T07:12:36.600Z,405.00
2023-04-17T07:13:36.615Z,399.38
2023-04-17T07:14:36.637Z,399.38
2023-04-17T07:15:36.842Z,393.75
2023-04-17T07:16:36.702Z,399.38
2023-04-17T07:17:36.832Z,405.00
2023-04-17T07:18:36.735Z,410.63
2023-04-17T07:19:36.752Z,416.25
2023-04-17T07:20:36.776Z,421.88
2023-04-17T07:21:36.796Z,421.88
2023-04-17T07:22:36.855Z,427.50
2023-04-17T07:23:36.842Z,438.75
2023-04-17T07:24:36.867Z,433.13
2023-04-17T07:25:36.887Z,438.75
2023-04-17T07:26:36.921Z,438.75
2023-04-17T07:27:36.934Z,438.75
2023-04-17T07:28:36.959Z,438.75
2023-04-17T07:29:36.983Z,450.00
2023-04-17T07:30:37.009Z,450.00
2023-04-17T07:31:37.063Z,455.63
2023-04-17T07:32:37.070Z,455.63
2023-04-17T07:33:40.084Z,466.88
2023-04-17T07:34:37.098Z,478.13
2023-04-17T07:35:37.123Z,483.75
2023-04-17T07:36:37.145Z,489.38
2023-04-17T07:37:37.230Z,483.75
2023-04-17T07:38:39.106Z,483.75
2023-04-17T07:39:37.281Z,478.13
2023-04-17T07:40:37.238Z,483.75
2023-04-17T07:41:37.255Z,478.13
2023-04-17T07:42:37.288Z,466.88
2023-04-17T07:43:37.298Z,466.88
2023-04-17T07:44:37.345Z,466.88
2023-04-17T07:45:39.204Z,466.88
2023-04-17T07:46:37.422Z,472.50
2023-04-17T07:47:37.449Z,478.13
2023-04-17T07:48:37.436Z,478.13
2023-04-17T07:49:37.445Z,478.13
2023-04-17T07:50:37.464Z,466.88
2023-04-17T07:51:37.492Z,450.00
2023-04-17T07:52:37.515Z,433.13
2023-04-17T07:53:37.546Z,427.50
2023-04-17T07:54:37.563Z,433.13
2023-04-17T07:55:37.612Z,444.38
2023-04-17T07:56:37.619Z,455.63
2023-04-17T07:57:37.632Z,472.50
2023-04-17T07:58:37.654Z,455.63
2023-04-17T07:59:37.701Z,461.25
2023-04-17T08:00:37.704Z,461.25
2023-04-17T08:01:37.724Z,455.63
2023-04-17T08:02:37.871Z,450.00
2023-04-17T08:03:38.005Z,444.38
2023-04-17T08:04:37.851Z,444.38
2023-04-17T08:05:37.818Z,450.00
2023-04-17T08:06:37.846Z,466.88
2023-04-17T08:07:37.865Z,472.50
2023-04-17T08:08:37.904Z,478.13
2023-04-17T08:09:37.913Z,483.75
2023-04-17T08:10:37.939Z,489.38
2023-04-17T08:11:46.031Z,489.38
2023-04-17T08:12:37.984Z,489.38
2023-04-17T08:13:38.004Z,483.75
2023-04-17T08:14:38.039Z,495.00
2023-04-17T08:15:39.513Z,517.50
2023-04-17T08:16:38.102Z,517.50
2023-04-17T08:17:38.226Z,506.25
2023-04-17T08:18:38.126Z,489.38
2023-04-17T08:19:38.149Z,478.13
2023-04-17T08:20:38.178Z,461.25
2023-04-17T08:21:38.195Z,450.00
2023-04-17T08:22:38.231Z,450.00
2023-04-17T08:23:38.243Z,450.00
2023-04-17T08:24:38.285Z,444.38
2023-04-17T08:25:38.306Z,421.88
2023-04-17T08:26:38.313Z,388.13
2023-04-17T08:27:38.339Z,371.25
2023-04-17T08:28:38.365Z,376.88
2023-04-17T08:29:38.387Z,382.50
2023-04-17T08:30:38.436Z,376.88
2023-04-17T08:31:38.436Z,376.88
2023-04-17T08:32:38.495Z,354.38
2023-04-17T08:33:38.514Z,331.88
2023-04-17T08:34:38.509Z,315.00
2023-04-17T08:35:38.536Z,303.75
2023-04-17T08:36:38.557Z,298.13
2023-04-17T08:37:38.588Z,309.38
2023-04-17T08:38:38.611Z,326.25
2023-04-17T08:39:38.633Z,354.38
2023-04-17T08:40:38.650Z,382.50
2023-04-17T08:41:38.676Z,405.00
2023-04-17T08:42:38.699Z,433.13
2023-04-17T08:43:38.727Z,461.25
2023-04-17T08:44:38.757Z,478.13
2023-04-17T08:45:38.782Z,495.00
2023-04-17T08:46:38.907Z,506.25
2023-04-17T08:47:38.861Z,506.25
2023-04-17T08:48:38.841Z,500.63
2023-04-17T08:49:38.865Z,495.00
2023-04-17T08:50:38.886Z,495.00
2023-04-17T08:51:38.912Z,489.38
2023-04-17T08:52:38.942Z,489.38
2023-04-17T08:53:38.966Z,478.13
2023-04-17T08:54:39.083Z,478.13
2023-04-17T08:55:39.006Z,483.75
2023-04-17T08:56:39.048Z,483.75
2023-04-17T08:57:39.057Z,489.38
2023-04-17T08:58:39.078Z,500.63
2023-04-17T08:59:39.106Z,511.88
2023-04-17T09:00:39.138Z,528.75
2023-04-17T09:01:39.180Z,540.00
2023-04-17T09:02:39.281Z,534.38
2023-04-17T09:03:39.325Z,517.50
2023-04-17T09:04:39.349Z,506.25
2023-04-17T09:05:39.254Z,495.00
2023-04-17T09:06:39.285Z,478.13
2023-04-17T09:07:39.295Z,466.88
2023-04-17T09:08:39.322Z,455.63
2023-04-17T09:09:39.344Z,444.38
2023-04-17T09:10:39.371Z,421.88
2023-04-17T09:11:39.394Z,405.00
2023-04-17T09:12:39.418Z,393.75
2023-04-17T09:13:39.454Z,388.13
2023-04-17T09:14:39.484Z,376.88
2023-04-17T09:15:39.517Z,348.75
2023-04-17T09:16:39.575Z,320.63
2023-04-17T09:17:39.598Z,303.75
2023-04-17T09:18:39.566Z,286.88
2023-04-17T09:19:39.597Z,275.63
2023-04-17T09:20:39.625Z,275.63
2023-04-17T09:21:39.640Z,281.25
2023-04-17T09:22:39.659Z,275.63
2023-04-17T09:23:39.688Z,281.25
2023-04-17T09:24:39.726Z,292.50
2023-04-17T09:25:39.740Z,298.13
2023-04-17T09:26:39.765Z,303.75
2023-04-17T09:27:39.788Z,309.38
2023-04-17T09:28:39.810Z,309.38
2023-04-17T09:29:39.835Z,315.00
2023-04-17T09:30:39.861Z,315.00
2023-04-17T09:31:40.025Z,315.00
2023-04-17T09:32:39.959Z,320.63
2023-04-17T09:33:39.936Z,326.25
2023-04-17T09:34:39.948Z,326.25
2023-04-17T09:35:40.536Z,326.25
2023-04-17T09:36:40.001Z,320.63
2023-04-17T09:37:40.026Z,315.00
2023-04-17T09:38:40.066Z,309.38
2023-04-17T09:39:40.073Z,309.38
2023-04-17T09:40:40.094Z,303.75
2023-04-17T09:41:40.138Z,298.13
2023-04-17T09:42:40.157Z,298.13
2023-04-17T09:43:40.172Z,292.50
2023-04-17T09:44:40.192Z,292.50
2023-04-17T09:45:40.215Z,292.50
2023-04-17T09:46:40.272Z,286.88
2023-04-17T09:47:40.350Z,286.88
2023-04-17T09:48:40.290Z,286.88
2023-04-17T09:49:40.322Z,281.25
2023-04-17T09:50:40.339Z,281.25
2023-04-17T09:51:40.361Z,286.88
2023-04-17T09:52:40.386Z,292.50
2023-04-17T09:53:40.427Z,303.75
2023-04-17T09:54:40.437Z,309.38
2023-04-17T09:55:40.455Z,326.25
2023-04-17T09:56:40.481Z,337.50
2023-04-17T09:57:41.831Z,348.75
2023-04-17T09:58:40.534Z,365.63
2023-04-17T09:59:40.549Z,376.88
2023-04-17T10:00:40.601Z,393.75
2023-04-17T10:01:40.608Z,421.88
2023-04-17T10:02:40.715Z,433.13
2023-04-17T10:03:40.844Z,444.38
2023-04-17T10:04:40.731Z,455.63
2023-04-17T10:05:40.692Z,466.88
2023-04-17T10:06:40.730Z,483.75
2023-04-17T10:07:40.740Z,500.63
2023-04-17T10:08:40.767Z,511.88
2023-04-17T10:09:40.793Z,523.13
2023-04-17T10:10:40.815Z,528.75
2023-04-17T10:11:40.847Z,528.75
2023-04-17T10:12:40.864Z,523.13
2023-04-17T10:13:40.894Z,511.88
2023-04-17T10:14:40.920Z,495.00
2023-04-17T10:15:40.945Z,478.13
2023-04-17T10:16:40.995Z,472.50
2023-04-17T10:17:41.017Z,450.00
2023-04-17T10:18:41.012Z,438.75
2023-04-17T10:19:41.075Z,421.88
2023-04-17T10:20:41.083Z,410.63
2023-04-17T10:21:41.082Z,393.75
2023-04-17T10:22:41.167Z,371.25
2023-04-17T10:23:41.139Z,354.38
2023-04-17T10:24:41.165Z,337.50
2023-04-17T10:25:41.199Z,326.25
2023-04-17T10:26:41.255Z,315.00
2023-04-17T10:27:41.265Z,315.00
2023-04-17T10:28:41.263Z,309.38
2023-04-17T10:29:41.289Z,309.38
2023-04-17T10:30:44.106Z,315.00
2023-04-17T10:31:41.363Z,326.25
2023-04-17T10:32:41.397Z,337.50
2023-04-17T10:33:41.390Z,348.75
2023-04-17T10:34:43.848Z,354.38
2023-04-17T10:35:41.570Z,365.63
2023-04-17T10:36:41.462Z,371.25
2023-04-17T10:37:41.486Z,376.88
2023-04-17T10:38:41.513Z,376.88
2023-04-17T10:39:41.539Z,388.13
2023-04-17T10:40:41.564Z,393.75
2023-04-17T10:41:41.586Z,393.75
2023-04-17T10:42:41.611Z,405.00
2023-04-17T10:43:41.709Z,388.13
2023-04-17T10:44:41.677Z,371.25
2023-04-17T10:45:41.734Z,354.38
2023-04-17T10:46:41.717Z,337.50
2023-04-17T10:47:42.974Z,326.25
2023-04-17T10:48:41.846Z,303.75
2023-04-17T10:49:41.809Z,286.88
2023-04-17T10:50:41.822Z,275.63
2023-04-17T10:51:41.838Z,264.38
2023-04-17T10:52:41.915Z,253.13
2023-04-17T10:53:41.892Z,253.13
2023-04-17T10:54:41.912Z,253.13
2023-04-17T10:55:41.939Z,253.13
2023-04-17T10:56:41.970Z,247.50
2023-04-17T10:57:41.991Z,241.88
2023-04-17T10:58:42.011Z,241.88
2023-04-17T10:59:42.039Z,241.88
2023-04-17T11:00:42.064Z,241.88
2023-04-17T11:01:42.207Z,241.88
2023-04-17T11:02:42.174Z,241.88
2023-04-17T11:03:42.195Z,241.88
2023-04-17T11:04:42.206Z,247.50
2023-04-17T11:05:42.195Z,247.50
2023-04-17T11:06:42.212Z,241.88
2023-04-17T11:07:42.256Z,241.88
2023-04-17T11:08:42.259Z,247.50
2023-04-17T11:09:42.285Z,264.38
2023-04-17T11:10:42.313Z,264.38
2023-04-17T11:11:44.478Z,236.25
2023-04-17T11:12:42.361Z,208.13
2023-04-17T11:13:42.385Z,196.88
2023-04-17T11:14:42.408Z,196.88
2023-04-17T11:15:42.433Z,196.88
2023-04-17T11:16:42.514Z,202.50
2023-04-17T11:17:42.527Z,208.13
2023-04-17T11:18:42.506Z,208.13
2023-04-17T11:19:43.325Z,202.50
2023-04-17T11:20:42.560Z,202.50
2023-04-17T11:21:42.591Z,196.88
2023-04-17T11:22:42.604Z,196.88
2023-04-17T11:23:42.654Z,202.50
2023-04-17T11:24:42.659Z,202.50
2023-04-17T11:25:43.794Z,202.50
2023-04-17T11:26:42.704Z,202.50
2023-04-17T11:27:42.730Z,208.13
2023-04-17T11:28:42.764Z,208.13
2023-04-17T11:29:42.778Z,202.50
2023-04-17T11:30:42.805Z,196.88
2023-04-17T11:31:42.859Z,196.88
2023-04-17T11:32:42.884Z,196.88
2023-04-17T11:33:42.877Z,196.88
2023-04-17T11:34:42.977Z,196.88
2023-04-17T11:35:43.039Z,196.88
2023-04-17T11:36:42.955Z,202.50
2023-04-17T11:37:42.975Z,208.13
2023-04-17T11:38:43.006Z,213.75
2023-04-17T11:39:43.028Z,219.38
2023-04-17T11:40:43.052Z,213.75
2023-04-17T11:41:43.078Z,213.75
2023-04-17T11:42:43.113Z,213.75
2023-04-17T11:43:43.123Z,208.13
2023-04-17T11:44:43.149Z,208.13
2023-04-17T11:45:43.176Z,208.13
2023-04-17T11:46:43.244Z,202.50
2023-04-17T11:47:43.249Z,202.50
2023-04-17T11:48:43.252Z,196.88
2023-04-17T11:49:43.272Z,219.38
2023-04-17T11:50:43.296Z,208.13
2023-04-17T11:51:43.324Z,208.13
2023-04-17T11:52:43.348Z,202.50
2023-04-17T11:53:43.371Z,196.88
2023-04-17T11:54:43.393Z,196.88
2023-04-17T11:55:43.422Z,196.88
2023-04-17T11:56:43.444Z,196.88
2023-04-17T11:57:43.493Z,196.88
2023-04-17T11:58:43.494Z,202.50
2023-04-17T11:59:43.519Z,202.50
2023-04-17T12:00:43.609Z,202.50
2023-04-17T12:01:43.566Z,208.13
2023-04-17T12:02:43.669Z,202.50
2023-04-17T12:03:45.424Z,208.13
2023-04-17T12:04:43.879Z,208.13
2023-04-17T12:05:43.720Z,213.75
2023-04-17T12:06:43.691Z,208.13
2023-04-17T12:07:43.716Z,202.50
2023-04-17T12:08:43.764Z,219.38
2023-04-17T12:09:43.768Z,247.50
2023-04-17T12:10:43.791Z,292.50
2023-04-17T12:11:43.821Z,309.38
2023-04-17T12:12:43.844Z,292.50
2023-04-17T12:13:43.867Z,270.00
2023-04-17T12:14:43.901Z,236.25
2023-04-17T12:15:43.950Z,208.13
2023-04-17T12:16:43.998Z,213.75
2023-04-17T12:17:43.985Z,213.75
2023-04-17T12:18:44.000Z,202.50
2023-04-17T12:19:44.017Z,196.88
2023-04-17T12:20:44.043Z,196.88
2023-04-17T12:21:44.081Z,202.50
2023-04-17T12:22:44.088Z,202.50
2023-04-17T12:23:44.119Z,213.75
2023-04-17T12:24:44.149Z,219.38
2023-04-17T12:25:44.208Z,230.63
2023-04-17T12:26:44.823Z,236.25
2023-04-17T12:27:44.220Z,258.75
2023-04-17T12:28:44.250Z,247.50
2023-04-17T12:29:44.950Z,219.38
2023-04-17T12:30:44.295Z,208.13
2023-04-17T12:31:44.352Z,208.13
2023-04-17T12:32:44.381Z,208.13
2023-04-17T12:33:44.367Z,202.50
2023-04-17T12:34:44.426Z,213.75
2023-04-17T12:35:44.432Z,219.38
2023-04-17T12:36:44.443Z,213.75
2023-04-17T12:37:44.487Z,208.13
2023-04-17T12:38:44.493Z,202.50
2023-04-17T12:39:44.518Z,202.50
2023-04-17T12:40:44.547Z,191.25
2023-04-17T12:41:44.574Z,202.50
2023-04-17T12:42:49.247Z,196.88
2023-04-17T12:43:44.621Z,191.25
2023-04-17T12:44:44.645Z,208.13
2023-04-17T12:45:44.745Z,230.63
2023-04-17T12:46:44.698Z,247.50
2023-04-17T12:47:44.843Z,253.13
2023-04-17T12:48:44.751Z,253.13